Time;durP1;ratioP1;P1;durP2;ratioP2;P2;SDS_P1;SDS_P2;PMS_P1;PMS_P2;Temp;Humidity;BMP_temperature;BMP_pressure;BME280_temperature;BME280_humidity;BME280_pressure;Samples;Min_cycle;Max_cycle;Signal;HPM_P1;HPM_P2
2021/07/05 00:02:20;;;;;;;11.73;7.50;;;;;;;12.61;95.19;98376.59;5069190;28;20090;-70
2021/07/05 00:04:46;;;;;;;13.57;8.90;;;;;;;12.59;95.73;98369.59;5055367;28;20032;-70
2021/07/05 00:07:12;;;;;;;13.90;7.85;;;;;;;12.62;96.06;98376.31;5065322;28;20033;-70
2021/07/05 00:09:39;;;;;;;16.05;9.82;;;;;;;12.60;95.99;98392.00;5047573;28;20041;-70
2021/07/05 00:12:05;;;;;;;13.40;8.85;;;;;;;12.60;96.01;98375.81;5050328;28;20112;-70
2021/07/05 00:14:32;;;;;;;10.07;5.63;;;;;;;12.58;95.78;98375.28;5057315;28;20037;-69
2021/07/05 00:16:58;;;;;;;9.15;4.28;;;;;;;12.59;95.37;98372.28;5059247;28;20099;-69
2021/07/05 00:19:26;;;;;;;6.68;4.03;;;;;;;12.59;95.21;98375.00;5043843;28;20040;-70
2021/07/05 00:21:52;;;;;;;6.10;3.72;;;;;;;12.60;95.01;98370.41;5051011;28;20032;-70
2021/07/05 00:24:18;;;;;;;7.35;3.60;;;;;;;12.56;95.09;98370.16;5060265;28;20380;-69
2021/07/05 00:26:44;;;;;;;5.25;3.50;;;;;;;12.58;95.46;98373.38;5056822;28;20513;-69
2021/07/05 00:29:10;;;;;;;9.05;3.75;;;;;;;12.62;95.79;98372.81;5060361;28;20501;-69
2021/07/05 00:31:36;;;;;;;5.63;4.30;;;;;;;12.61;95.70;98374.72;5056779;28;20036;-69
2021/07/05 00:34:02;;;;;;;6.15;3.78;;;;;;;12.61;95.78;98365.78;5061670;28;20040;-69
2021/07/05 00:36:28;;;;;;;6.25;3.90;;;;;;;12.59;95.35;98364.19;5058792;28;20032;-69
2021/07/05 00:38:54;;;;;;;6.88;4.22;;;;;;;12.64;95.22;98354.41;5050867;28;20108;-69
2021/07/05 00:41:19;;;;;;;5.45;4.10;;;;;;;12.66;95.44;98363.84;5049530;28;20052;-69
2021/07/05 00:43:45;;;;;;;8.80;4.00;;;;;;;12.69;95.45;98367.84;5070144;28;20393;-69
2021/07/05 00:46:11;;;;;;;10.45;4.88;;;;;;;12.72;95.74;98367.25;5057862;28;20032;-70
2021/07/05 00:48:36;;;;;;;10.63;4.45;;;;;;;12.70;95.49;98364.06;5059018;28;20044;-70
2021/07/05 00:51:02;;;;;;;8.23;3.95;;;;;;;12.68;95.38;98368.94;5053752;28;21343;-70
2021/07/05 00:53:28;;;;;;;15.23;3.80;;;;;;;12.67;95.40;98373.56;5058592;28;20028;-70
2021/07/05 00:55:54;;;;;;;6.90;4.28;;;;;;;12.66;95.07;98368.44;5060414;28;20107;-69
2021/07/05 00:58:19;;;;;;;7.35;4.13;;;;;;;12.65;95.30;98375.75;5059679;28;20062;-69
2021/07/05 01:00:46;;;;;;;7.35;4.38;;;;;;;12.65;95.66;98373.03;5059907;28;20063;-69
2021/07/05 01:03:12;;;;;;;8.00;4.38;;;;;;;12.67;95.62;98373.56;5066743;28;20751;-70
2021/07/05 01:05:38;;;;;;;8.43;4.13;;;;;;;12.67;95.41;98365.44;5073165;28;20102;-69
2021/07/05 01:08:05;;;;;;;11.30;4.25;;;;;;;12.60;95.07;98367.72;5067714;28;20388;-70
2021/07/05 01:10:34;;;;;;;8.18;4.40;;;;;;;12.61;95.06;98372.00;5054315;28;20025;-69
2021/07/05 01:13:00;;;;;;;6.03;4.50;;;;;;;12.58;95.17;98367.19;5054818;28;20439;-69
2021/07/05 01:15:29;;;;;;;6.97;4.30;;;;;;;12.56;94.71;98363.97;5060301;28;20040;-70
2021/07/05 01:17:58;;;;;;;5.10;3.97;;;;;;;12.54;94.76;98361.56;5063510;28;20410;-69
2021/07/05 01:20:26;;;;;;;9.02;4.75;;;;;;;12.56;95.06;98369.38;5063373;28;20094;-69
2021/07/05 01:22:52;;;;;;;9.02;4.75;;;;;;;12.56;95.39;98364.75;5068270;28;20485;-69
2021/07/05 01:25:21;;;;;;;11.65;4.95;;;;;;;12.57;95.06;98363.66;5061484;28;20068;-69
2021/07/05 01:27:47;;;;;;;6.25;4.55;;;;;;;12.56;94.98;98370.16;5057590;28;20036;-69
2021/07/05 01:30:14;;;;;;;12.98;5.82;;;;;;;12.58;94.83;98370.69;5059338;28;20031;-69
2021/07/05 01:32:40;;;;;;;7.22;4.50;;;;;;;12.59;95.18;98368.78;5071698;28;20405;-69
2021/07/05 01:35:08;;;;;;;8.23;4.38;;;;;;;12.55;94.96;98365.06;5063919;28;20037;-69
2021/07/05 01:37:34;;;;;;;9.00;5.05;;;;;;;12.53;94.84;98367.25;5067739;28;20024;-69
2021/07/05 01:40:01;;;;;;;5.85;4.82;;;;;;;12.54;95.27;98356.16;5064015;28;20044;-69
2021/07/05 01:42:27;;;;;;;8.27;4.28;;;;;;;12.51;94.87;98355.94;5059176;28;20087;-69
2021/07/05 01:44:52;;;;;;;9.77;4.35;;;;;;;12.50;94.47;98349.72;5064674;28;20170;-68
2021/07/05 01:47:18;;;;;;;9.88;4.75;;;;;;;12.50;94.57;98349.72;5051905;28;20124;-68
2021/07/05 01:49:46;;;;;;;6.40;4.38;;;;;;;12.48;94.57;98348.41;5057169;28;20420;-68
2021/07/05 01:52:13;;;;;;;7.68;4.78;;;;;;;12.46;94.47;98337.09;5054520;28;20527;-68
2021/07/05 01:54:40;;;;;;;13.18;5.10;;;;;;;12.46;94.30;98347.91;5052068;28;20076;-68
2021/07/05 01:57:24;;;;;;;9.93;4.88;;;;;;;12.48;94.44;98354.59;5060755;28;20037;-68
2021/07/05 01:59:59;;;;;;;6.78;4.68;;;;;;;12.49;94.41;98350.03;5055286;28;20040;-68
2021/07/05 02:02:26;;;;;;;8.25;4.35;;;;;;;12.47;94.52;98353.00;5065682;28;20037;-68
2021/07/05 02:04:52;;;;;;;7.47;4.43;;;;;;;12.51;94.82;98355.94;5061308;28;20032;-69
2021/07/05 02:07:19;;;;;;;8.00;4.63;;;;;;;12.51;94.74;98345.94;5051604;28;20059;-68
2021/07/05 02:09:46;;;;;;;12.38;4.68;;;;;;;12.54;94.76;98358.06;5062769;28;20116;-68
2021/07/05 02:12:13;;;;;;;8.20;4.57;;;;;;;12.55;95.21;98352.34;5059227;28;20025;-68
2021/07/05 02:14:40;;;;;;;7.75;4.70;;;;;;;12.57;95.15;98360.19;5051182;28;20652;-68
2021/07/05 02:17:08;;;;;;;12.10;5.13;;;;;;;12.56;95.25;98356.66;5051711;28;20120;-68
2021/07/05 02:19:34;;;;;;;9.20;5.40;;;;;;;12.56;95.37;98356.66;5063938;28;20021;-68
2021/07/05 02:22:00;;;;;;;9.65;5.35;;;;;;;12.63;95.25;98352.81;5044922;28;20541;-68
2021/07/05 02:24:26;;;;;;;11.65;6.88;;;;;;;12.61;95.56;98355.81;5065452;28;20723;-68
2021/07/05 02:26:51;;;;;;;13.05;7.60;;;;;;;12.65;95.75;98358.72;5045901;28;20040;-69
2021/07/05 02:29:17;;;;;;;16.48;8.30;;;;;;;12.64;95.61;98351.72;5061566;28;20033;-69
2021/07/05 02:31:43;;;;;;;19.98;10.23;;;;;;;12.66;95.83;98361.13;5058798;28;20025;-69
2021/07/05 02:34:09;;;;;;;16.92;9.40;;;;;;;12.69;95.61;98351.63;5062025;28;20119;-68
2021/07/05 02:36:34;;;;;;;20.50;9.98;;;;;;;12.69;95.87;98357.03;5052409;28;20041;-68
2021/07/05 02:39:00;;;;;;;18.75;10.27;;;;;;;12.68;95.72;98355.44;5050822;28;20123;-68
2021/07/05 02:41:25;;;;;;;19.52;10.55;;;;;;;12.67;96.03;98356.53;5051988;28;20098;-69
2021/07/05 02:43:51;;;;;;;19.17;10.60;;;;;;;12.69;96.17;98357.03;5066823;28;20050;-69
2021/07/05 02:46:16;;;;;;;23.10;11.25;;;;;;;12.68;95.72;98352.72;5059490;28;20482;-69
2021/07/05 02:48:43;;;;;;;15.88;10.27;;;;;;;12.68;95.68;98358.13;5057351;28;20532;-69
2021/07/05 02:51:09;;;;;;;17.77;10.30;;;;;;;12.68;96.06;98360.84;5055809;28;20040;-69
2021/07/05 02:53:36;;;;;;;19.15;9.90;;;;;;;12.70;95.61;98362.16;5056914;28;20025;-68
2021/07/05 02:56:03;;;;;;;18.40;10.65;;;;;;;12.68;95.70;98367.06;5060624;28;20043;-68
2021/07/05 02:58:30;;;;;;;18.33;9.32;;;;;;;12.69;95.50;98357.84;5059178;28;20086;-69
2021/07/05 03:00:59;;;;;;;18.60;9.38;;;;;;;12.62;95.01;98354.72;5065927;28;20037;-68
2021/07/05 03:03:25;;;;;;;14.70;8.60;;;;;;;12.59;94.83;98347.97;5053620;28;20021;-69
2021/07/05 03:05:51;;;;;;;20.15;8.85;;;;;;;12.59;95.51;98350.69;5061571;28;20029;-68
2021/07/05 03:08:17;;;;;;;14.55;8.43;;;;;;;12.54;94.99;98348.03;5061049;28;20503;-69
2021/07/05 03:10:43;;;;;;;20.05;8.43;;;;;;;12.52;95.42;98347.53;5057971;28;20032;-68
2021/07/05 03:13:12;;;;;;;15.93;8.95;;;;;;;12.52;95.23;98350.22;5061670;28;20135;-68
2021/07/05 03:15:38;;;;;;;16.77;8.45;;;;;;;12.51;95.37;98343.22;5055947;28;20033;-68
2021/07/05 03:18:05;;;;;;;18.73;8.82;;;;;;;12.53;95.46;98353.75;5062008;28;20497;-68
2021/07/05 03:20:33;;;;;;;25.70;7.97;;;;;;;12.49;95.08;98361.63;5063441;28;20066;-69
2021/07/05 03:23:00;;;;;;;16.50;7.60;;;;;;;12.50;95.45;98360.53;5064348;28;20398;-68
2021/07/05 03:25:28;;;;;;;17.70;7.65;;;;;;;12.49;95.30;98361.63;5060397;28;20037;-68
2021/07/05 03:27:54;;;;;;;33.17;7.97;;;;;;;12.48;95.14;98354.59;5064646;28;20047;-68
2021/07/05 03:30:21;;;;;;;11.73;7.38;;;;;;;12.47;95.12;98361.09;5056224;28;20043;-68
2021/07/05 03:32:48;;;;;;;12.10;7.20;;;;;;;12.47;95.09;98355.69;5042262;28;20409;-68
2021/07/05 03:35:15;;;;;;;15.20;7.03;;;;;;;12.48;95.02;98367.31;5055078;28;20028;-68
2021/07/05 03:37:41;;;;;;;18.80;7.15;;;;;;;12.47;94.92;98361.09;5057662;28;20108;-68
2021/07/05 03:40:10;;;;;;;15.23;6.93;;;;;;;12.49;94.61;98366.22;5055716;28;20128;-68
2021/07/05 03:42:36;;;;;;;11.63;6.75;;;;;;;12.46;94.51;98362.19;5053679;28;20033;-68
2021/07/05 03:45:05;;;;;;;10.52;6.68;;;;;;;12.49;94.59;98371.63;5059975;28;20043;-68
2021/07/05 03:47:31;;;;;;;12.95;6.90;;;;;;;12.48;94.82;98365.41;5064075;28;20487;-67
2021/07/05 03:49:57;;;;;;;14.75;6.78;;;;;;;12.47;95.00;98363.81;5061439;28;20037;-68
2021/07/05 03:52:23;;;;;;;14.88;7.35;;;;;;;12.46;95.14;98367.59;5051338;28;20082;-68
2021/07/05 03:54:48;;;;;;;9.63;6.90;;;;;;;12.47;95.22;98366.50;5056195;28;20033;-67
2021/07/05 03:57:23;;;;;;;13.65;6.55;;;;;;;12.46;94.80;98370.28;5053260;28;20029;-68
2021/07/05 03:59:50;;;;;;;10.63;6.07;;;;;;;12.46;94.91;98370.28;5054194;28;20044;-67
2021/07/05 04:02:16;;;;;;;12.07;5.85;;;;;;;12.46;94.77;98364.09;5069404;28;20057;-68
2021/07/05 04:04:42;;;;;;;8.75;5.80;;;;;;;12.44;94.47;98370.59;5055270;28;20443;-67
2021/07/05 04:07:08;;;;;;;11.93;5.82;;;;;;;12.40;94.61;98364.16;5051159;28;20098;-68
2021/07/05 04:09:34;;;;;;;13.13;6.13;;;;;;;12.43;94.65;98373.56;5066643;28;20035;-67
2021/07/05 04:12:00;;;;;;;9.20;5.57;;;;;;;12.40;94.28;98366.03;5054531;28;20025;-67
2021/07/05 04:14:26;;;;;;;11.35;5.68;;;;;;;12.46;94.35;98366.81;5044465;28;20028;-67
2021/07/05 04:16:52;;;;;;;11.77;5.10;;;;;;;12.44;94.46;98372.47;5050341;28;20029;-67
2021/07/05 04:19:17;;;;;;;10.30;5.25;;;;;;;12.43;94.70;98365.47;5067584;28;20024;-67
2021/07/05 04:21:43;;;;;;;8.98;4.95;;;;;;;12.44;94.66;98372.47;5051286;28;20032;-67
2021/07/05 04:24:09;;;;;;;11.55;5.22;;;;;;;12.42;94.31;98372.78;5060310;28;20043;-68
2021/07/05 04:26:34;;;;;;;5.55;4.47;;;;;;;12.42;94.38;98359.28;5058516;28;20425;-67
2021/07/05 04:29:00;;;;;;;9.45;4.68;;;;;;;12.42;94.32;98366.56;5057587;28;20062;-67
2021/07/05 04:31:25;;;;;;;9.93;5.00;;;;;;;12.41;94.63;98365.78;5055977;28;20442;-67
2021/07/05 04:33:51;;;;;;;8.38;5.45;;;;;;;12.42;94.45;98370.09;5053928;28;20028;-68
2021/07/05 04:36:17;;;;;;;10.48;5.45;;;;;;;12.42;94.45;98364.69;5059368;28;20028;-67
2021/07/05 04:38:42;;;;;;;6.90;4.85;;;;;;;12.45;94.55;98371.38;5065788;28;20469;-67
2021/07/05 04:41:08;;;;;;;10.80;5.60;;;;;;;12.44;94.38;98367.91;5052831;28;20120;-67
2021/07/05 04:43:33;;;;;;;10.05;5.53;;;;;;;12.44;94.16;98364.38;5059901;28;20056;-68
2021/07/05 04:46:04;;;;;;;7.63;5.82;;;;;;;12.47;94.11;98358.41;5059813;28;20048;-67
2021/07/05 04:48:30;;;;;;;10.55;5.68;;;;;;;12.49;93.81;98353.50;5046207;28;20029;-67
2021/07/05 04:50:56;;;;;;;11.85;5.75;;;;;;;12.47;93.50;98363.81;5054968;28;20118;-67
2021/07/05 04:53:23;;;;;;;12.95;6.22;;;;;;;12.49;93.44;98352.72;5057054;28;20107;-67
2021/07/05 04:55:48;;;;;;;10.05;5.85;;;;;;;12.50;93.63;98351.63;5059550;28;20100;-67
2021/07/05 04:58:14;;;;;;;13.30;5.80;;;;;;;12.49;93.46;98356.22;5063371;28;20539;-67
2021/07/05 05:00:39;;;;;;;9.02;6.10;;;;;;;12.55;93.28;98359.66;5067164;28;20043;-68
2021/07/05 05:03:06;;;;;;;17.75;6.18;;;;;;;12.54;93.30;98355.34;5058495;28;20029;-67
2021/07/05 05:05:33;;;;;;;13.35;5.95;;;;;;;12.54;93.02;98363.47;5052910;28;20037;-67
2021/07/05 05:07:59;;;;;;;13.82;6.32;;;;;;;12.60;93.22;98359.59;5063281;28;20025;-67
2021/07/05 05:10:26;;;;;;;14.80;6.55;;;;;;;12.61;92.79;98361.22;5061842;28;20086;-67
2021/07/05 05:12:53;;;;;;;11.07;6.10;;;;;;;12.64;92.45;98363.34;5058323;28;20055;-68
2021/07/05 05:15:19;;;;;;;12.27;5.43;;;;;;;12.62;92.31;98359.28;5063581;28;20032;-68
2021/07/05 05:17:47;;;;;;;10.25;5.43;;;;;;;12.68;92.18;98358.13;5065590;28;20594;-67
2021/07/05 05:20:14;;;;;;;14.88;5.50;;;;;;;12.65;92.08;98361.41;5067523;28;20035;-68
2021/07/05 05:22:40;;;;;;;14.75;5.75;;;;;;;12.66;92.27;98353.03;5050289;28;20033;-67
2021/07/05 05:25:08;;;;;;;12.63;6.00;;;;;;;12.67;92.24;98361.94;5061563;28;20032;-67
2021/07/05 05:27:34;;;;;;;16.75;5.68;;;;;;;12.72;91.90;98351.06;5053712;28;20029;-67
2021/07/05 05:30:00;;;;;;;16.42;5.88;;;;;;;12.72;92.08;98353.75;5061928;28;20083;-65
2021/07/05 05:32:26;;;;;;;16.85;5.70;;;;;;;12.76;92.10;98354.00;5056211;28;20032;-65
2021/07/05 05:34:51;;;;;;;13.38;5.45;;;;;;;12.81;91.47;98356.63;5061662;28;20029;-65
2021/07/05 05:37:17;;;;;;;10.32;5.47;;;;;;;12.82;90.81;98352.81;5064535;28;20029;-64
2021/07/05 05:39:42;;;;;;;11.00;4.82;;;;;;;12.85;91.09;98341.44;5054454;28;20064;-65
2021/07/05 05:42:08;;;;;;;10.02;5.03;;;;;;;12.91;91.19;98347.56;5056710;28;20047;-65
2021/07/05 05:44:34;;;;;;;12.57;4.93;;;;;;;12.96;91.39;98347.47;5050001;28;20120;-65
2021/07/05 05:47:00;;;;;;;9.73;4.57;;;;;;;12.97;90.32;98355.31;5055468;28;20115;-65
2021/07/05 05:49:25;;;;;;;11.05;5.05;;;;;;;13.00;90.46;98349.31;5054388;28;20040;-65
2021/07/05 05:51:51;;;;;;;9.32;4.88;;;;;;;12.98;89.28;98348.00;5051542;28;20045;-65
2021/07/05 05:54:17;;;;;;;12.52;5.22;;;;;;;12.99;89.80;98349.59;5057808;28;20094;-65
2021/07/05 05:56:43;;;;;;;12.07;4.88;;;;;;;13.02;90.23;98354.41;5056916;28;20094;-65
2021/07/05 05:59:10;;;;;;;15.57;5.00;;;;;;;12.98;89.87;98351.50;5060029;28;20481;-64
2021/07/05 06:01:38;;;;;;;14.48;4.80;;;;;;;12.95;89.75;98353.97;5056520;28;20094;-64
2021/07/05 06:04:05;;;;;;;9.85;4.40;;;;;;;13.00;89.70;98356.59;5056880;28;20035;-65
2021/07/05 06:06:33;;;;;;;10.95;4.60;;;;;;;13.00;89.73;98356.59;5057201;28;20086;-64
2021/07/05 06:08:58;;;;;;;10.13;4.35;;;;;;;13.04;89.73;98352.22;5060170;28;20086;-65
2021/07/05 06:11:24;;;;;;;9.05;4.40;;;;;;;13.01;89.42;98353.63;5050852;28;20037;-65
2021/07/05 06:13:49;;;;;;;12.18;4.68;;;;;;;12.98;89.24;98348.81;5055750;28;20045;-66
2021/07/05 06:16:15;;;;;;;11.73;4.78;;;;;;;12.98;89.34;98354.22;5057252;28;20474;-64
2021/07/05 06:18:41;;;;;;;21.80;4.50;;;;;;;13.03;89.18;98364.94;5057287;28;20617;-66
2021/07/05 06:21:07;;;;;;;13.30;4.82;;;;;;;13.06;88.83;98360.84;5056848;28;20138;-65
2021/07/05 06:23:34;;;;;;;10.95;4.53;;;;;;;13.09;88.82;98356.78;5054856;28;20029;-67
2021/07/05 06:26:02;;;;;;;8.55;4.68;;;;;;;13.12;89.15;98351.56;5060731;28;20340;-67
2021/07/05 06:28:29;;;;;;;10.13;4.50;;;;;;;13.14;88.97;98345.88;5058063;28;20132;-68
2021/07/05 06:30:57;;;;;;;16.50;4.43;;;;;;;13.17;88.75;98346.06;5057568;28;20402;-68
2021/07/05 06:33:24;;;;;;;12.63;4.35;;;;;;;13.24;88.42;98343.00;5059860;28;20062;-68
2021/07/05 06:35:50;;;;;;;12.57;4.13;;;;;;;13.27;88.27;98349.75;5065152;28;20524;-68
2021/07/05 06:38:18;;;;;;;8.75;4.22;;;;;;;13.45;87.77;98348.13;5056100;28;20033;-68
2021/07/05 06:40:45;;;;;;;8.77;3.85;;;;;;;13.65;86.08;98347.00;5061430;28;20521;-68
2021/07/05 06:43:14;;;;;;;11.48;3.45;;;;;;;13.66;86.17;98354.00;5054680;28;20059;-68
2021/07/05 06:45:41;;;;;;;19.73;4.03;;;;;;;13.72;85.78;98352.00;5053558;28;20464;-68
2021/07/05 06:48:08;;;;;;;8.57;3.60;;;;;;;14.00;84.97;98355.56;5056325;28;20048;-68
2021/07/05 06:50:33;;;;;;;9.27;3.42;;;;;;;14.00;84.01;98357.44;5054002;28;20040;-68
2021/07/05 06:52:59;;;;;;;7.80;3.17;;;;;;;14.15;83.79;98361.78;5048788;28;20032;-68
2021/07/05 06:55:25;;;;;;;14.63;4.07;;;;;;;14.33;84.26;98357.38;5055645;28;20585;-68
2021/07/05 06:57:52;;;;;;;13.40;3.40;;;;;;;14.33;83.73;98360.09;5058819;28;20029;-68
2021/07/05 07:00:21;;;;;;;10.23;3.40;;;;;;;14.32;82.98;98359.28;5055307;28;20433;-69
2021/07/05 07:02:48;;;;;;;10.05;3.45;;;;;;;14.15;82.95;98372.63;5050521;28;20045;-69
2021/07/05 07:05:16;;;;;;;11.80;3.70;;;;;;;14.13;83.64;98366.69;5060326;28;20106;-69
2021/07/05 07:07:45;;;;;;;10.68;3.80;;;;;;;14.22;84.50;98369.53;5055494;28;20043;-68
2021/07/05 07:10:12;;;;;;;11.30;3.30;;;;;;;14.15;82.36;98373.44;5051677;28;20051;-69
2021/07/05 07:12:39;;;;;;;9.95;3.67;;;;;;;14.23;84.23;98379.25;5064295;28;20513;-69
2021/07/05 07:15:09;;;;;;;10.60;3.80;;;;;;;14.40;83.59;98384.06;5057010;28;20044;-67
2021/07/05 07:20:01;;;;;;;8.90;3.50;;;;;;;14.33;83.04;98384.47;5061343;28;20048;-67
2021/07/05 07:22:27;;;;;;;9.25;3.10;;;;;;;14.48;82.30;98384.16;5051618;28;20133;-67
2021/07/05 07:24:52;;;;;;;6.00;3.03;;;;;;;14.34;81.86;98395.00;5053948;28;20063;-67
2021/07/05 07:27:18;;;;;;;11.20;2.97;;;;;;;14.75;80.89;98389.88;5052162;28;20024;-67
2021/07/05 07:29:44;;;;;;;10.30;3.38;;;;;;;14.90;80.00;98397.66;5059235;28;20031;-68
2021/07/05 07:32:10;;;;;;;5.22;2.78;;;;;;;15.12;81.47;98393.44;5063175;28;20044;-68
2021/07/05 07:34:36;;;;;;;6.43;2.90;;;;;;;15.39;78.31;98394.44;5054812;28;20036;-69
2021/07/05 07:37:04;;;;;;;10.15;2.90;;;;;;;15.68;78.30;98386.94;5046120;28;20390;-70
2021/07/05 07:39:41;;;;;;;12.77;2.85;;;;;;;15.98;78.31;98387.34;5050582;28;20031;-69
2021/07/05 07:42:07;;;;;;;9.65;2.85;;;;;;;16.02;77.11;98405.41;5050525;28;20037;-70
2021/07/05 07:44:36;;;;;;;6.15;2.50;;;;;;;15.93;76.96;98404.56;5057732;28;20481;-68
2021/07/05 07:47:03;;;;;;;8.80;2.63;;;;;;;15.97;77.00;98399.31;5056582;28;20048;-68
2021/07/05 07:49:30;;;;;;;7.97;2.50;;;;;;;15.86;76.13;98407.66;5058150;28;20045;-68
2021/07/05 07:51:57;;;;;;;12.38;2.75;;;;;;;15.97;75.61;98408.25;5049894;28;20102;-67
2021/07/05 07:54:23;;;;;;;7.75;2.70;;;;;;;16.07;74.99;98418.06;5046516;28;20029;-66
2021/07/05 07:56:55;;;;;;;7.60;2.72;;;;;;;15.85;75.61;98416.13;5051143;28;20041;-67
2021/07/05 07:59:21;;;;;;;9.13;2.60;;;;;;;15.98;75.48;98412.56;5058741;28;20041;-68
2021/07/05 08:01:47;;;;;;;9.32;2.35;;;;;;;15.69;75.32;98402.94;5070406;28;20037;-67
2021/07/05 08:04:14;;;;;;;10.90;5.55;;;;;;;15.91;75.30;98413.03;5047813;28;20363;-67
2021/07/05 08:06:40;;;;;;;10.75;2.85;;;;;;;15.85;75.80;98416.13;5059814;28;20121;-67
2021/07/05 08:09:07;;;;;;;11.05;2.80;;;;;;;15.98;77.08;98407.13;5058912;28;20033;-67
2021/07/05 08:11:34;;;;;;;8.07;2.90;;;;;;;16.14;77.11;98412.97;5049355;28;20076;-68
2021/07/05 08:14:04;;;;;;;11.50;3.15;;;;;;;16.09;73.37;98402.25;5046317;28;20029;-68
2021/07/05 08:16:30;;;;;;;5.90;2.67;;;;;;;16.08;74.78;98412.28;5061785;28;20032;-68
2021/07/05 08:18:56;;;;;;;12.07;3.85;;;;;;;16.16;74.14;98409.94;5062402;28;20864;-69
2021/07/05 08:21:24;;;;;;;9.63;3.30;;;;;;;15.88;74.98;98423.69;5048087;28;20041;-68
2021/07/05 08:23:50;;;;;;;19.95;5.13;;;;;;;15.69;74.88;98424.66;5051020;28;21130;-68
2021/07/05 08:26:16;;;;;;;12.07;3.15;;;;;;;16.02;76.05;98413.53;5062976;28;20040;-67
2021/07/05 08:28:42;;;;;;;9.13;3.30;;;;;;;16.22;73.92;98417.66;5052438;28;20029;-67
2021/07/05 08:31:08;;;;;;;7.78;2.70;;;;;;;16.11;73.70;98421.75;5061792;28;20044;-67
2021/07/05 08:33:37;;;;;;;6.53;2.30;;;;;;;15.88;73.85;98407.41;5066612;28;20033;-67
2021/07/05 08:36:04;;;;;;;5.20;2.45;;;;;;;15.85;73.71;98413.41;5065008;28;20025;-67
2021/07/05 08:38:30;;;;;;;8.88;3.28;;;;;;;15.82;73.78;98409.41;5072441;28;20079;-67
2021/07/05 08:40:57;;;;;;;13.80;3.83;;;;;;;15.93;74.42;98409.97;5065899;28;20053;-66
2021/07/05 08:43:27;;;;;;;10.10;4.85;;;;;;;16.08;73.75;98403.38;5066805;28;20044;-66
2021/07/05 08:46:16;;;;;;;7.35;2.58;;;;;;;16.38;74.73;98411.81;5052976;28;20025;-66
2021/07/05 08:48:43;;;;;;;9.68;3.80;;;;;;;16.53;71.99;98405.13;5062361;28;20060;-66
2021/07/05 08:51:12;;;;;;;6.65;2.35;;;;;;;16.61;71.05;98400.84;5060549;28;20048;-67
2021/07/05 08:53:39;;;;;;;8.65;2.50;;;;;;;16.91;71.74;98399.16;5071068;28;20036;-66
2021/07/05 08:56:05;;;;;;;4.22;2.03;;;;;;;17.07;69.36;98396.78;5058989;28;20478;-65
2021/07/05 08:58:31;;;;;;;5.13;1.95;;;;;;;16.97;68.53;98391.66;5057134;28;20044;-66
2021/07/05 09:00:57;;;;;;;7.68;1.95;;;;;;;17.10;69.88;98384.47;5050639;28;20070;-67
2021/07/05 09:03:25;;;;;;;11.20;2.17;;;;;;;17.21;70.21;98385.75;5058765;28;20033;-66
2021/07/05 09:06:11;;;;;;;8.68;2.50;;;;;;;16.86;69.12;98376.75;5051667;28;20466;-66
2021/07/05 09:08:39;;;;;;;5.65;2.00;;;;;;;16.52;68.83;98388.03;5062309;28;20033;-66
2021/07/05 09:11:09;;;;;;;4.78;1.90;;;;;;;16.48;72.03;98387.06;5068258;28;20430;-66
2021/07/05 09:13:47;;;;;;;7.63;1.88;;;;;;;16.28;70.90;98385.69;5055920;28;20035;-66
2021/07/05 09:16:30;;;;;;;55.25;5.75;;;;;;;16.64;71.72;98395.56;5052371;28;20029;-66
2021/07/05 09:18:56;;;;;;;10.48;2.30;;;;;;;16.75;70.21;98396.06;5062403;28;20470;-66
2021/07/05 09:21:28;;;;;;;17.17;2.10;;;;;;;16.99;69.32;98394.84;5064602;28;20394;-66
2021/07/05 09:24:08;;;;;;;11.23;2.13;;;;;;;17.18;68.35;98383.69;5069266;28;20025;-66
2021/07/05 09:26:35;;;;;;;2.58;1.40;;;;;;;17.19;67.73;98387.19;5062270;28;20433;-66
2021/07/05 09:29:05;;;;;;;18.92;2.40;;;;;;;17.53;67.85;98389.09;5059148;28;20386;-66
2021/07/05 09:31:35;;;;;;;61.83;4.47;;;;;;;17.67;66.29;98377.22;5061734;28;20032;-65
2021/07/05 09:34:03;;;;;;;47.33;3.28;;;;;;;17.55;64.30;98375.97;5056837;28;20038;-66
2021/07/05 09:36:30;;;;;;;5.20;1.45;;;;;;;17.25;64.95;98383.19;5059173;28;20040;-66
2021/07/05 09:38:56;;;;;;;7.47;1.75;;;;;;;16.93;66.33;98391.47;5057806;28;21002;-66
2021/07/05 09:41:30;;;;;;;17.45;2.20;;;;;;;16.75;67.57;98382.47;5061264;28;20025;-66
2021/07/05 09:43:58;;;;;;;10.70;1.92;;;;;;;16.92;69.27;98370.03;5050057;28;20116;-65
2021/07/05 09:46:42;;;;;;;55.05;4.05;;;;;;;16.81;69.25;98364.91;5053026;28;20044;-66
2021/07/05 09:49:39;;;;;;;6.95;1.70;;;;;;;17.04;69.96;98359.34;5062745;28;20029;-66
2021/07/05 09:52:24;;;;;;;8.55;1.50;;;;;;;17.56;67.61;98363.97;5057987;28;20490;-66
2021/07/05 09:54:58;;;;;;;6.50;1.60;;;;;;;17.60;65.80;98366.81;5069607;28;20174;-66
2021/07/05 09:57:39;;;;;;;3.97;1.30;;;;;;;17.98;64.27;98365.28;5063752;28;20032;-66
2021/07/05 10:00:08;;;;;;;5.55;1.20;;;;;;;18.35;62.29;98373.81;5059784;28;20045;-66
2021/07/05 10:02:35;;;;;;;9.20;1.40;;;;;;;18.92;62.28;98377.19;5052736;28;20485;-66
2021/07/05 10:05:12;;;;;;;2.17;0.90;;;;;;;18.97;58.50;98365.31;5059718;28;20089;-66
2021/07/05 10:07:37;;;;;;;5.45;1.38;;;;;;;18.95;61.36;98356.63;5055889;28;20047;-66
2021/07/05 10:10:15;;;;;;;4.10;1.38;;;;;;;19.06;61.91;98368.75;5068788;28;20032;-66
2021/07/05 10:12:57;;;;;;;13.50;2.15;;;;;;;18.31;63.05;98364.69;5056513;28;20371;-66
2021/07/05 10:15:24;;;;;;;3.78;1.25;;;;;;;17.72;63.89;98368.88;5056236;28;20043;-66
2021/07/05 10:17:51;;;;;;;2.42;1.08;;;;;;;17.58;64.33;98369.06;5054224;28;20083;-66
2021/07/05 10:20:21;;;;;;;2.92;0.90;;;;;;;17.68;62.14;98374.19;5052538;28;20797;-66
2021/07/05 10:22:49;;;;;;;1.35;0.60;;;;;;;17.64;62.48;98378.66;5059366;28;20036;-66
2021/07/05 10:25:17;;;;;;;4.18;0.85;;;;;;;17.80;62.37;98383.63;5055899;28;20029;-66
2021/07/05 10:27:43;;;;;;;1.50;0.70;;;;;;;17.90;61.06;98387.91;5048251;28;20385;-66
2021/07/05 10:30:11;;;;;;;3.28;0.90;;;;;;;18.17;60.54;98385.94;5052449;28;20498;-66
2021/07/05 10:32:38;;;;;;;3.03;0.90;;;;;;;18.36;60.78;98383.59;5061178;28;20029;-66
2021/07/05 10:35:05;;;;;;;0.88;0.60;;;;;;;18.57;59.97;98374.69;5066514;28;20169;-66
2021/07/05 10:37:43;;;;;;;1.35;0.70;;;;;;;18.91;61.35;98388.44;5061372;28;20041;-66
2021/07/05 10:40:11;;;;;;;1.55;0.70;;;;;;;18.92;59.63;98390.03;5067240;28;20025;-66
2021/07/05 10:42:42;;;;;;;2.00;0.80;;;;;;;19.07;60.21;98399.59;5051514;28;20710;-66
2021/07/05 10:45:16;;;;;;;1.42;0.70;;;;;;;18.93;59.14;98392.44;5053843;28;20072;-66
2021/07/05 10:47:43;;;;;;;3.83;0.88;;;;;;;18.56;60.63;98392.19;5050870;28;20037;-66
2021/07/05 10:50:29;;;;;;;1.48;0.68;;;;;;;18.53;60.11;98388.19;5059853;28;20056;-66
2021/07/05 10:52:54;;;;;;;1.75;0.60;;;;;;;18.41;61.45;98396.25;5052308;28;20055;-66
2021/07/05 10:55:40;;;;;;;2.10;0.70;;;;;;;18.24;61.51;98388.94;5054269;28;20037;-66
2021/07/05 10:58:30;;;;;;;3.60;0.80;;;;;;;18.24;62.09;98389.75;5057718;28;20041;-65
2021/07/05 11:00:58;;;;;;;1.70;0.73;;;;;;;18.51;59.69;98386.88;5047628;28;20106;-66
2021/07/05 11:03:36;;;;;;;1.00;0.55;;;;;;;18.38;59.30;98391.47;5059660;28;20457;-65
2021/07/05 11:06:09;;;;;;;1.15;0.60;;;;;;;18.50;59.19;98391.56;5047270;28;20482;-66
2021/07/05 11:08:53;;;;;;;2.25;0.60;;;;;;;18.63;58.72;98392.47;5053388;28;20037;-66
2021/07/05 11:11:42;;;;;;;;;;;;;;;18.44;58.19;98401.84;5053634;28;20486;-66
2021/07/05 11:14:20;;;;;;;2.85;0.50;;;;;;;17.54;62.87;98417.09;5056309;28;19916;-66
2021/07/05 11:16:55;;;;;;;2.28;0.63;;;;;;;16.37;66.25;98424.56;5055292;28;20214;-66
2021/07/05 11:19:41;;;;;;;1.42;0.68;;;;;;;15.91;71.24;98423.06;5058267;28;20509;-65
2021/07/05 11:22:17;;;;;;;1.45;0.65;;;;;;;15.44;73.59;98420.63;5053060;28;20032;-66
2021/07/05 11:24:50;;;;;;;4.93;0.80;;;;;;;15.20;79.34;98433.38;5059939;28;20031;-66
2021/07/05 11:27:52;;;;;;;2.15;1.10;;;;;;;14.76;81.68;98427.53;5060164;28;20452;-70
2021/07/05 11:30:24;;;;;;;2.83;0.90;;;;;;;14.52;82.42;98429.63;5046607;28;20047;-67
2021/07/05 11:32:58;;;;;;;3.00;0.98;;;;;;;14.50;85.08;98443.44;5046086;28;20049;-68
2021/07/05 11:35:45;;;;;;;8.63;1.20;;;;;;;14.40;85.74;98438.22;5046669;28;20079;-69
2021/07/05 11:38:29;;;;;;;1.45;1.00;;;;;;;14.51;86.53;98436.94;5044620;28;20073;-70